sensor_id;sensor_type;location;lat;lon;timestamp;pressure;altitude;pressure_sealevel;temperature;humidity
44531;BME280;30240;47.418;0.700;2023-02-13T00:00:05;102082.75146484375;;;3.78;93.16
44531;BME280;30240;47.418;0.700;2023-02-13T00:02:28;102082.75146484375;;;3.78;93.16
44531;BME280;30240;47.418;0.700;2023-02-13T00:04:53;102074.462890625;;;3.79;93.13
44531;BME280;30240;47.418;0.700;2023-02-13T00:07:18;102078.28369140625;;;3.72;93.08
44531;BME280;30240;47.418;0.700;2023-02-13T00:09:43;102077.96630859375;;;3.75;93.29
44531;BME280;30240;47.418;0.700;2023-02-13T00:12:09;102076.9775390625;;;3.71;93.22
44531;BME280;30240;47.418;0.700;2023-02-13T00:14:34;102076.9775390625;;;3.71;93.22
44531;BME280;30240;47.418;0.700;2023-02-13T00:16:58;102074.78637695312;;;3.71;93.36
44531;BME280;30240;47.418;0.700;2023-02-13T00:19:23;102076.66625976562;;;3.71;93.35
44531;BME280;30240;47.418;0.700;2023-02-13T00:21:48;102073.45581054688;;;3.71;93.41
44531;BME280;30240;47.418;0.700;2023-02-13T00:24:13;102076.03149414062;;;3.61;93.49
44531;BME280;30240;47.418;0.700;2023-02-13T00:26:38;102075.5615234375;;;3.69;93.53
44531;BME280;30240;47.418;0.700;2023-02-13T00:29:04;102075.5615234375;;;3.69;93.53
44531;BME280;30240;47.418;0.700;2023-02-13T00:31:28;102069.53125;;;3.68;93.49
44531;BME280;30240;47.418;0.700;2023-02-13T00:33:53;102069.51293945312;;;3.69;93.53
44531;BME280;30240;47.418;0.700;2023-02-13T00:36:20;102070.73364257812;;;3.67;93.47
44531;BME280;30240;47.418;0.700;2023-02-13T00:38:44;102071.00219726562;;;3.74;93.45
44531;BME280;30240;47.418;0.700;2023-02-13T00:41:09;102071.00219726562;;;3.74;93.45
44531;BME280;30240;47.418;0.700;2023-02-13T00:43:34;102068.3349609375;;;3.68;93.51
44531;BME280;30240;47.418;0.700;2023-02-13T00:45:59;102067.68798828125;;;3.69;93.58
44531;BME280;30240;47.418;0.700;2023-02-13T00:48:24;102063.42163085938;;;3.72;93.61
44531;BME280;30240;47.418;0.700;2023-02-13T00:50:48;102053.69262695312;;;3.72;93.7
44531;BME280;30240;47.418;0.700;2023-02-13T00:53:14;102053.69262695312;;;3.72;93.7
44531;BME280;30240;47.418;0.700;2023-02-13T00:55:38;102057.763671875;;;3.67;93.69
44531;BME280;30240;47.418;0.700;2023-02-13T00:58:03;102054.71801757812;;;3.69;93.7
44531;BME280;30240;47.418;0.700;2023-02-13T01:00:30;102048.26049804688;;;3.67;93.76
44531;BME280;30240;47.418;0.700;2023-02-13T01:02:54;102042.73681640625;;;3.68;93.85
44531;BME280;30240;47.418;0.700;2023-02-13T01:05:18;102042.73681640625;;;3.68;93.85
44531;BME280;30240;47.418;0.700;2023-02-13T01:07:44;102049.74975585938;;;3.67;93.83
44531;BME280;30240;47.418;0.700;2023-02-13T01:10:09;102055.908203125;;;3.65;93.92
44531;BME280;30240;47.418;0.700;2023-02-13T01:12:34;102058.09936523438;;;3.65;93.89
44531;BME280;30240;47.418;0.700;2023-02-13T01:14:58;102049.07836914062;;;3.61;93.96
44531;BME280;30240;47.418;0.700;2023-02-13T01:17:23;102049.07836914062;;;3.61;93.96
44531;BME280;30240;47.418;0.700;2023-02-13T01:19:48;102056.7626953125;;;3.61;93.98
44531;BME280;30240;47.418;0.700;2023-02-13T01:22:13;102052.99072265625;;;3.58;94.16
44531;BME280;30240;47.418;0.700;2023-02-13T01:24:38;102052.4658203125;;;3.58;94.03
44531;BME280;30240;47.418;0.700;2023-02-13T01:27:03;102051.65405273438;;;3.57;94.02
44531;BME280;30240;47.418;0.700;2023-02-13T01:29:29;102051.65405273438;;;3.57;94.02
44531;BME280;30240;47.418;0.700;2023-02-13T01:31:54;102045.81298828125;;;3.58;93.97
44531;BME280;30240;47.418;0.700;2023-02-13T01:34:18;102042.1630859375;;;3.57;94.01
44531;BME280;30240;47.418;0.700;2023-02-13T01:36:44;102038.81225585938;;;3.57;94.08
44531;BME280;30240;47.418;0.700;2023-02-13T01:39:10;102035.02197265625;;;3.54;94.16
44531;BME280;30240;47.418;0.700;2023-02-13T01:41:33;102035.02197265625;;;3.54;94.16
44531;BME280;30240;47.418;0.700;2023-02-13T01:44:00;102031.15844726562;;;3.52;94.22
44531;BME280;30240;47.418;0.700;2023-02-13T01:46:28;102037.86010742188;;;3.51;94.18
44531;BME280;30240;47.418;0.700;2023-02-13T01:48:50;102041.650390625;;;3.5;94.19
44531;BME280;30240;47.418;0.700;2023-02-13T01:51:16;102039.9658203125;;;3.5;94.15
44531;BME280;30240;47.418;0.700;2023-02-13T01:53:42;102039.9658203125;;;3.5;94.15
44531;BME280;30240;47.418;0.700;2023-02-13T01:56:07;102042.04711914062;;;3.48;94.18
44531;BME280;30240;47.418;0.700;2023-02-13T01:58:31;102038.90380859375;;;3.5;94.18
44531;BME280;30240;47.418;0.700;2023-02-13T02:00:54;102042.85888671875;;;3.48;94.17
44531;BME280;30240;47.418;0.700;2023-02-13T02:03:21;102041.064453125;;;3.43;94.17
44531;BME280;30240;47.418;0.700;2023-02-13T02:05:44;102036.41967773438;;;3.4;94.14
44531;BME280;30240;47.418;0.700;2023-02-13T02:08:11;102036.41967773438;;;3.4;94.14
44531;BME280;30240;47.418;0.700;2023-02-13T02:10:34;102043.5791015625;;;3.37;94.15
44531;BME280;30240;47.418;0.700;2023-02-13T02:13:04;102038.34228515625;;;3.4;94.06
44531;BME280;30240;47.418;0.700;2023-02-13T02:15:24;102036.97509765625;;;3.41;94.02
44531;BME280;30240;47.418;0.700;2023-02-13T02:17:48;102050.14038085938;;;3.41;94.0
44531;BME280;30240;47.418;0.700;2023-02-13T02:20:21;102050.14038085938;;;3.41;94.0
44531;BME280;30240;47.418;0.700;2023-02-13T02:20:28;102050.14038085938;;;3.41;94.0
44531;BME280;30240;47.418;0.700;2023-02-13T02:20:35;102050.14038085938;;;3.41;94.0
44531;BME280;30240;47.418;0.700;2023-02-13T02:22:49;102047.45483398438;;;3.37;93.97
44531;BME280;30240;47.418;0.700;2023-02-13T02:23:08;102047.45483398438;;;3.37;93.97
44531;BME280;30240;47.418;0.700;2023-02-13T02:25:21;102043.07861328125;;;3.35;93.92
44531;BME280;30240;47.418;0.700;2023-02-13T02:27:37;102038.8427734375;;;3.31;93.99
44531;BME280;30240;47.418;0.700;2023-02-13T02:30:49;102030.70068359375;;;3.28;94.07
44531;BME280;30240;47.418;0.700;2023-02-13T02:32:23;102030.70068359375;;;3.28;94.07
44531;BME280;30240;47.418;0.700;2023-02-13T02:34:48;102034.73510742188;;;3.24;94.09
44531;BME280;30240;47.418;0.700;2023-02-13T02:37:42;102036.21826171875;;;3.23;94.07
44531;BME280;30240;47.418;0.700;2023-02-13T02:37:48;102036.21826171875;;;3.23;94.07
44531;BME280;30240;47.418;0.700;2023-02-13T02:39:41;102034.12475585938;;;3.19;94.11
44531;BME280;30240;47.418;0.700;2023-02-13T02:42:05;102040.0634765625;;;3.13;94.21
44531;BME280;30240;47.418;0.700;2023-02-13T02:44:30;102040.0634765625;;;3.13;94.21
44531;BME280;30240;47.418;0.700;2023-02-13T02:46:55;102032.2509765625;;;3.15;94.28
44531;BME280;30240;47.418;0.700;2023-02-13T02:49:15;102036.04736328125;;;3.12;94.25
44531;BME280;30240;47.418;0.700;2023-02-13T02:51:45;102029.4677734375;;;3.1;94.18
44531;BME280;30240;47.418;0.700;2023-02-13T02:54:07;102034.67407226562;;;3.05;94.19
44531;BME280;30240;47.418;0.700;2023-02-13T02:56:35;102034.67407226562;;;3.05;94.19
44531;BME280;30240;47.418;0.700;2023-02-13T02:58:58;102032.92846679688;;;2.91;94.37
44531;BME280;30240;47.418;0.700;2023-02-13T03:01:22;102036.41967773438;;;2.93;94.53
44531;BME280;30240;47.418;0.700;2023-02-13T03:03:45;102034.46044921875;;;2.95;94.43
44531;BME280;30240;47.418;0.700;2023-02-13T03:06:13;102034.19799804688;;;2.89;94.36
44531;BME280;30240;47.418;0.700;2023-02-13T03:08:34;102034.19799804688;;;2.89;94.36
44531;BME280;30240;47.418;0.700;2023-02-13T03:10:59;102036.04736328125;;;2.89;94.57
44531;BME280;30240;47.418;0.700;2023-02-13T03:13:38;102039.47143554688;;;2.84;94.75
44531;BME280;30240;47.418;0.700;2023-02-13T03:15:50;102036.5966796875;;;2.81;94.79
44531;BME280;30240;47.418;0.700;2023-02-13T03:18:14;102037.51831054688;;;2.84;94.81
44531;BME280;30240;47.418;0.700;2023-02-13T03:20:44;102037.51831054688;;;2.84;94.81
44531;BME280;30240;47.418;0.700;2023-02-13T03:23:10;102044.17114257812;;;2.8;94.66
44531;BME280;30240;47.418;0.700;2023-02-13T03:25:34;102052.67333984375;;;2.89;94.42
44531;BME280;30240;47.418;0.700;2023-02-13T03:27:56;102057.03125;;;2.87;94.29
44531;BME280;30240;47.418;0.700;2023-02-13T03:30:25;102057.31201171875;;;2.74;94.37
44531;BME280;30240;47.418;0.700;2023-02-13T03:30:31;102057.31201171875;;;2.74;94.37
44531;BME280;30240;47.418;0.700;2023-02-13T03:32:46;102054.4189453125;;;2.75;94.32
44531;BME280;30240;47.418;0.700;2023-02-13T03:35:23;102054.4189453125;;;2.75;94.32
44531;BME280;30240;47.418;0.700;2023-02-13T03:37:37;102052.587890625;;;2.64;94.43
44531;BME280;30240;47.418;0.700;2023-02-13T03:40:02;102051.20239257812;;;2.62;94.48
44531;BME280;30240;47.418;0.700;2023-02-13T03:42:28;102051.36108398438;;;2.49;94.59
44531;BME280;30240;47.418;0.700;2023-02-13T03:44:52;102053.45458984375;;;2.53;94.73
44531;BME280;30240;47.418;0.700;2023-02-13T03:47:14;102053.45458984375;;;2.53;94.73
44531;BME280;30240;47.418;0.700;2023-02-13T03:49:42;102048.27880859375;;;2.53;94.75
44531;BME280;30240;47.418;0.700;2023-02-13T03:52:06;102047.07641601562;;;2.4;94.88
44531;BME280;30240;47.418;0.700;2023-02-13T03:54:32;102048.12622070312;;;2.39;95.04
44531;BME280;30240;47.418;0.700;2023-02-13T03:56:54;102053.76586914062;;;2.36;95.21
44531;BME280;30240;47.418;0.700;2023-02-13T03:59:21;102053.76586914062;;;2.36;95.21
44531;BME280;30240;47.418;0.700;2023-02-13T04:01:47;102057.70263671875;;;2.29;95.35
44531;BME280;30240;47.418;0.700;2023-02-13T04:04:11;102057.86743164062;;;2.28;95.43
44531;BME280;30240;47.418;0.700;2023-02-13T04:06:37;102054.62646484375;;;2.29;95.52
44531;BME280;30240;47.418;0.700;2023-02-13T04:08:59;102054.40673828125;;;2.25;95.57
44531;BME280;30240;47.418;0.700;2023-02-13T04:11:26;102054.40673828125;;;2.25;95.57
44531;BME280;30240;47.418;0.700;2023-02-13T04:13:51;102059.96704101562;;;2.28;95.62
44531;BME280;30240;47.418;0.700;2023-02-13T04:16:16;102057.6904296875;;;2.25;95.64
44531;BME280;30240;47.418;0.700;2023-02-13T04:18:39;102056.34155273438;;;2.21;95.69
44531;BME280;30240;47.418;0.700;2023-02-13T04:21:05;102058.90502929688;;;2.14;95.71
44531;BME280;30240;47.418;0.700;2023-02-13T04:23:29;102058.90502929688;;;2.14;95.71
44531;BME280;30240;47.418;0.700;2023-02-13T04:25:54;102059.62524414062;;;2.11;95.8
44531;BME280;30240;47.418;0.700;2023-02-13T04:28:19;102053.91235351562;;;2.12;95.87
44531;BME280;30240;47.418;0.700;2023-02-13T04:30:44;102059.34448242188;;;2.08;95.89
44531;BME280;30240;47.418;0.700;2023-02-13T04:33:09;102065.24047851562;;;2.09;95.94
44531;BME280;30240;47.418;0.700;2023-02-13T04:35:34;102065.24047851562;;;2.09;95.94
44531;BME280;30240;47.418;0.700;2023-02-13T04:37:59;102062.28637695312;;;2.05;95.92
44531;BME280;30240;47.418;0.700;2023-02-13T04:40:24;102063.59252929688;;;2.04;95.91
44531;BME280;30240;47.418;0.700;2023-02-13T04:42:49;102061.8408203125;;;1.99;95.96
44531;BME280;30240;47.418;0.700;2023-02-13T04:45:14;102062.39013671875;;;1.97;95.93
44531;BME280;30240;47.418;0.700;2023-02-13T04:47:39;102062.39013671875;;;1.97;95.93
44531;BME280;30240;47.418;0.700;2023-02-13T04:50:04;102057.47680664062;;;1.97;95.95
44531;BME280;30240;47.418;0.700;2023-02-13T04:52:29;102055.99975585938;;;1.97;95.86
44531;BME280;30240;47.418;0.700;2023-02-13T04:54:54;102059.80224609375;;;1.87;95.83
44531;BME280;30240;47.418;0.700;2023-02-13T04:57:19;102054.98657226562;;;1.9;95.82
44531;BME280;30240;47.418;0.700;2023-02-13T04:59:44;102054.98657226562;;;1.9;95.82
44531;BME280;30240;47.418;0.700;2023-02-13T05:02:09;102052.42309570312;;;1.94;95.78
44531;BME280;30240;47.418;0.700;2023-02-13T05:04:34;102057.373046875;;;1.88;95.72
44531;BME280;30240;47.418;0.700;2023-02-13T05:06:58;102060.21728515625;;;1.83;95.73
44531;BME280;30240;47.418;0.700;2023-02-13T05:09:24;102054.21752929688;;;1.8;95.76
44531;BME280;30240;47.418;0.700;2023-02-13T05:11:49;102058.00170898438;;;1.74;95.8
44531;BME280;30240;47.418;0.700;2023-02-13T05:14:14;102058.00170898438;;;1.74;95.8
44531;BME280;30240;47.418;0.700;2023-02-13T05:16:38;102064.36767578125;;;1.78;95.9
44531;BME280;30240;47.418;0.700;2023-02-13T05:19:03;102065.93627929688;;;1.8;95.91
44531;BME280;30240;47.418;0.700;2023-02-13T05:21:29;102060.66284179688;;;1.8;95.8
44531;BME280;30240;47.418;0.700;2023-02-13T05:23:54;102060.84594726562;;;1.81;95.78
44531;BME280;30240;47.418;0.700;2023-02-13T05:26:19;102060.84594726562;;;1.81;95.78
44531;BME280;30240;47.418;0.700;2023-02-13T05:28:44;102056.97021484375;;;1.84;95.64
44531;BME280;30240;47.418;0.700;2023-02-13T05:31:08;102063.25073242188;;;1.87;95.68
44531;BME280;30240;47.418;0.700;2023-02-13T05:33:34;102058.89282226562;;;1.88;95.63
44531;BME280;30240;47.418;0.700;2023-02-13T05:35:58;102056.93969726562;;;1.87;95.52
44531;BME280;30240;47.418;0.700;2023-02-13T05:38:24;102056.93969726562;;;1.87;95.52
44531;BME280;30240;47.418;0.700;2023-02-13T05:40:49;102049.30419921875;;;1.85;95.55
44531;BME280;30240;47.418;0.700;2023-02-13T05:43:14;102054.43725585938;;;1.87;95.47
44531;BME280;30240;47.418;0.700;2023-02-13T05:45:39;102058.544921875;;;1.83;95.51
44531;BME280;30240;47.418;0.700;2023-02-13T05:48:04;102060.7666015625;;;1.8;95.55
44531;BME280;30240;47.418;0.700;2023-02-13T05:50:28;102060.7666015625;;;1.8;95.55
44531;BME280;30240;47.418;0.700;2023-02-13T05:52:54;102068.15795898438;;;1.7;95.66
44531;BME280;30240;47.418;0.700;2023-02-13T05:55:19;102064.15405273438;;;1.73;95.72
44531;BME280;30240;47.418;0.700;2023-02-13T05:57:43;102064.42260742188;;;1.7;95.73
44531;BME280;30240;47.418;0.700;2023-02-13T06:00:09;102062.890625;;;1.68;95.75
44531;BME280;30240;47.418;0.700;2023-02-13T06:02:34;102062.890625;;;1.68;95.75
44531;BME280;30240;47.418;0.700;2023-02-13T06:04:58;102061.7919921875;;;1.67;95.71
44531;BME280;30240;47.418;0.700;2023-02-13T06:07:23;102061.865234375;;;1.63;95.79
44531;BME280;30240;47.418;0.700;2023-02-13T06:09:49;102068.37768554688;;;1.62;95.88
44531;BME280;30240;47.418;0.700;2023-02-13T06:12:14;102070.1904296875;;;1.6;95.81
44531;BME280;30240;47.418;0.700;2023-02-13T06:14:39;102070.1904296875;;;1.6;95.81
44531;BME280;30240;47.418;0.700;2023-02-13T06:17:04;102070.79467773438;;;1.6;95.85
44531;BME280;30240;47.418;0.700;2023-02-13T06:19:29;102068.42041015625;;;1.55;95.88
44531;BME280;30240;47.418;0.700;2023-02-13T06:21:54;102070.17211914062;;;1.55;95.82
44531;BME280;30240;47.418;0.700;2023-02-13T06:24:19;102070.11108398438;;;1.49;95.85
44531;BME280;30240;47.418;0.700;2023-02-13T06:26:44;102070.11108398438;;;1.49;95.85
44531;BME280;30240;47.418;0.700;2023-02-13T06:29:09;102069.95849609375;;;1.5;95.86
44531;BME280;30240;47.418;0.700;2023-02-13T06:31:34;102068.56079101562;;;1.48;95.82
44531;BME280;30240;47.418;0.700;2023-02-13T06:33:59;102077.79541015625;;;1.49;95.85
44531;BME280;30240;47.418;0.700;2023-02-13T06:36:23;102085.26611328125;;;1.49;95.89
44531;BME280;30240;47.418;0.700;2023-02-13T06:38:48;102083.09326171875;;;1.48;95.77
44531;BME280;30240;47.418;0.700;2023-02-13T06:41:13;102083.09326171875;;;1.48;95.77
44531;BME280;30240;47.418;0.700;2023-02-13T06:43:39;102090.4541015625;;;1.48;95.75
44531;BME280;30240;47.418;0.700;2023-02-13T06:46:04;102090.73486328125;;;1.45;95.74
44531;BME280;30240;47.418;0.700;2023-02-13T06:48:29;102095.45288085938;;;1.43;95.65
44531;BME280;30240;47.418;0.700;2023-02-13T06:50:54;102093.7744140625;;;1.42;95.59
44531;BME280;30240;47.418;0.700;2023-02-13T06:53:18;102093.7744140625;;;1.42;95.59
44531;BME280;30240;47.418;0.700;2023-02-13T06:55:43;102093.65844726562;;;1.38;95.6
44531;BME280;30240;47.418;0.700;2023-02-13T06:58:09;102095.9228515625;;;1.35;95.53
44531;BME280;30240;47.418;0.700;2023-02-13T07:00:33;102100.8544921875;;;1.32;95.5
44531;BME280;30240;47.418;0.700;2023-02-13T07:03:01;102101.38549804688;;;1.3;95.45
44531;BME280;30240;47.418;0.700;2023-02-13T07:05:23;102101.38549804688;;;1.3;95.45
44531;BME280;30240;47.418;0.700;2023-02-13T07:07:48;102105.04760742188;;;1.21;95.55
44531;BME280;30240;47.418;0.700;2023-02-13T07:10:14;102111.15112304688;;;1.27;95.62
44531;BME280;30240;47.418;0.700;2023-02-13T07:12:39;102111.10229492188;;;1.27;95.6
44531;BME280;30240;47.418;0.700;2023-02-13T07:15:04;102118.75;;;1.27;95.54
44531;BME280;30240;47.418;0.700;2023-02-13T07:17:29;102118.75;;;1.27;95.54
44531;BME280;30240;47.418;0.700;2023-02-13T07:19:54;102112.451171875;;;1.45;95.49
44531;BME280;30240;47.418;0.700;2023-02-13T07:22:19;102116.43676757812;;;1.49;95.17
44531;BME280;30240;47.418;0.700;2023-02-13T07:24:44;102120.9228515625;;;1.53;94.97
44531;BME280;30240;47.418;0.700;2023-02-13T07:27:09;102122.314453125;;;1.55;94.75
44531;BME280;30240;47.418;0.700;2023-02-13T07:29:33;102122.314453125;;;1.55;94.75
44531;BME280;30240;47.418;0.700;2023-02-13T07:31:58;102122.81494140625;;;1.5;94.55
44531;BME280;30240;47.418;0.700;2023-02-13T07:34:23;102126.7333984375;;;1.55;94.21
44531;BME280;30240;47.418;0.700;2023-02-13T07:36:49;102137.7197265625;;;1.64;94.0
44531;BME280;30240;47.418;0.700;2023-02-13T07:39:14;102138.26293945312;;;1.77;93.35
44531;BME280;30240;47.418;0.700;2023-02-13T07:41:38;102138.26293945312;;;1.77;93.35
44531;BME280;30240;47.418;0.700;2023-02-13T07:44:04;102140.625;;;1.98;92.66
44531;BME280;30240;47.418;0.700;2023-02-13T07:46:28;102143.36547851562;;;1.97;91.91
44531;BME280;30240;47.418;0.700;2023-02-13T07:48:54;102137.57934570312;;;2.04;91.31
44531;BME280;30240;47.418;0.700;2023-02-13T07:51:19;102136.24877929688;;;2.39;90.52
44531;BME280;30240;47.418;0.700;2023-02-13T07:53:44;102136.24877929688;;;2.39;90.52
44531;BME280;30240;47.418;0.700;2023-02-13T07:56:09;102135.7421875;;;2.61;89.9
44531;BME280;30240;47.418;0.700;2023-02-13T07:58:34;102136.43798828125;;;2.6;89.45
44531;BME280;30240;47.418;0.700;2023-02-13T08:01:05;102130.76782226562;;;2.87;89.28
44531;BME280;30240;47.418;0.700;2023-02-13T08:03:23;102137.8662109375;;;3.34;88.25
44531;BME280;30240;47.418;0.700;2023-02-13T08:05:49;102137.8662109375;;;3.34;88.25
44531;BME280;30240;47.418;0.700;2023-02-13T08:08:13;102134.24072265625;;;3.75;87.74
44531;BME280;30240;47.418;0.700;2023-02-13T08:10:39;102132.58056640625;;;3.78;87.08
44531;BME280;30240;47.418;0.700;2023-02-13T08:13:04;102132.97119140625;;;3.81;87.06
44531;BME280;30240;47.418;0.700;2023-02-13T08:15:28;102130.2490234375;;;3.96;86.22
44531;BME280;30240;47.418;0.700;2023-02-13T08:17:53;102131.3720703125;;;4.33;85.61
44531;BME280;30240;47.418;0.700;2023-02-13T08:20:19;102131.3720703125;;;4.33;85.61
44531;BME280;30240;47.418;0.700;2023-02-13T08:22:44;102132.23266601562;;;4.1;85.71
44531;BME280;30240;47.418;0.700;2023-02-13T08:25:09;102139.50805664062;;;4.51;84.89
44531;BME280;30240;47.418;0.700;2023-02-13T08:27:34;102147.36938476562;;;5.03;83.01
44531;BME280;30240;47.418;0.700;2023-02-13T08:29:59;102142.41943359375;;;5.42;82.16
44531;BME280;30240;47.418;0.700;2023-02-13T08:32:24;102142.41943359375;;;5.42;82.16
44531;BME280;30240;47.418;0.700;2023-02-13T08:34:49;102143.04809570312;;;5.88;80.4
44531;BME280;30240;47.418;0.700;2023-02-13T08:37:13;102142.76733398438;;;5.7;79.87
44531;BME280;30240;47.418;0.700;2023-02-13T08:39:39;102141.6259765625;;;5.87;80.61
44531;BME280;30240;47.418;0.700;2023-02-13T08:42:04;102136.279296875;;;4.98;81.45
44531;BME280;30240;47.418;0.700;2023-02-13T08:44:29;102136.279296875;;;4.98;81.45
44531;BME280;30240;47.418;0.700;2023-02-13T08:46:54;102141.9677734375;;;5.21;82.6
44531;BME280;30240;47.418;0.700;2023-02-13T08:49:19;102147.45483398438;;;5.45;81.49
44531;BME280;30240;47.418;0.700;2023-02-13T08:51:43;102145.8984375;;;5.9;80.2
44531;BME280;30240;47.418;0.700;2023-02-13T08:54:09;102145.08666992188;;;5.88;79.5
44531;BME280;30240;47.418;0.700;2023-02-13T08:56:33;102145.08666992188;;;5.88;79.5
44531;BME280;30240;47.418;0.700;2023-02-13T08:58:58;102138.5009765625;;;6.26;79.16
44531;BME280;30240;47.418;0.700;2023-02-13T09:01:24;102137.255859375;;;6.99;77.4
44531;BME280;30240;47.418;0.700;2023-02-13T09:03:49;102139.29443359375;;;6.57;79.12
44531;BME280;30240;47.418;0.700;2023-02-13T09:06:14;102139.0869140625;;;6.75;77.32
44531;BME280;30240;47.418;0.700;2023-02-13T09:08:39;102139.0869140625;;;6.75;77.32
44531;BME280;30240;47.418;0.700;2023-02-13T09:11:04;102142.7001953125;;;7.06;76.39
44531;BME280;30240;47.418;0.700;2023-02-13T09:13:29;102144.76318359375;;;7.54;75.55
44531;BME280;30240;47.418;0.700;2023-02-13T09:15:57;102146.59423828125;;;7.47;75.41
44531;BME280;30240;47.418;0.700;2023-02-13T09:18:18;102150.72631835938;;;7.56;74.7
44531;BME280;30240;47.418;0.700;2023-02-13T09:20:44;102150.72631835938;;;7.56;74.7
44531;BME280;30240;47.418;0.700;2023-02-13T09:23:08;102150.341796875;;;7.66;75.77
44531;BME280;30240;47.418;0.700;2023-02-13T09:25:33;102147.32055664062;;;7.61;73.89
44531;BME280;30240;47.418;0.700;2023-02-13T09:27:58;102150.64086914062;;;7.54;74.69
44531;BME280;30240;47.418;0.700;2023-02-13T09:30:24;102146.96655273438;;;7.59;75.11
44531;BME280;30240;47.418;0.700;2023-02-13T09:32:49;102146.96655273438;;;7.59;75.11
44531;BME280;30240;47.418;0.700;2023-02-13T09:35:14;102147.5341796875;;;7.47;74.11
44531;BME280;30240;47.418;0.700;2023-02-13T09:37:38;102151.86767578125;;;8.18;72.96
44531;BME280;30240;47.418;0.700;2023-02-13T09:40:04;102148.8037109375;;;7.87;72.79
44531;BME280;30240;47.418;0.700;2023-02-13T09:42:32;102146.9482421875;;;8.14;73.29
44531;BME280;30240;47.418;0.700;2023-02-13T09:44:57;102146.044921875;;;7.73;72.93
44531;BME280;30240;47.418;0.700;2023-02-13T09:47:25;102146.044921875;;;7.73;72.93
44531;BME280;30240;47.418;0.700;2023-02-13T09:49:46;102145.751953125;;;8.39;71.57
44531;BME280;30240;47.418;0.700;2023-02-13T09:52:09;102144.72045898438;;;8.0;73.95
44531;BME280;30240;47.418;0.700;2023-02-13T09:54:34;102140.99731445312;;;8.04;73.04
44531;BME280;30240;47.418;0.700;2023-02-13T09:57:00;102142.90771484375;;;8.79;69.83
44531;BME280;30240;47.418;0.700;2023-02-13T09:59:32;102142.90771484375;;;8.79;69.83
44531;BME280;30240;47.418;0.700;2023-02-13T10:01:49;102141.87622070312;;;9.4;68.99
44531;BME280;30240;47.418;0.700;2023-02-13T10:04:19;102145.62377929688;;;9.24;69.21
44531;BME280;30240;47.418;0.700;2023-02-13T10:06:42;102139.43481445312;;;9.31;69.13
44531;BME280;30240;47.418;0.700;2023-02-13T10:09:08;102141.6259765625;;;9.11;72.02
44531;BME280;30240;47.418;0.700;2023-02-13T10:11:35;102141.6259765625;;;9.11;72.02
44531;BME280;30240;47.418;0.700;2023-02-13T10:13:58;102141.9189453125;;;8.22;73.87
44531;BME280;30240;47.418;0.700;2023-02-13T10:16:20;102143.310546875;;;8.8;72.96
44531;BME280;30240;47.418;0.700;2023-02-13T10:18:48;102141.6748046875;;;8.41;72.8
44531;BME280;30240;47.418;0.700;2023-02-13T10:21:10;102138.90380859375;;;9.51;70.98
44531;BME280;30240;47.418;0.700;2023-02-13T10:23:36;102138.90380859375;;;9.51;70.98
44531;BME280;30240;47.418;0.700;2023-02-13T10:26:00;102139.95971679688;;;10.12;66.34
44531;BME280;30240;47.418;0.700;2023-02-13T10:28:29;102137.32299804688;;;9.4;69.94
44531;BME280;30240;47.418;0.700;2023-02-13T10:30:51;102140.93627929688;;;9.88;68.19
44531;BME280;30240;47.418;0.700;2023-02-13T10:33:16;102136.82861328125;;;9.31;69.88
44531;BME280;30240;47.418;0.700;2023-02-13T10:35:39;102136.82861328125;;;9.31;69.88
44531;BME280;30240;47.418;0.700;2023-02-13T10:38:13;102136.63940429688;;;11.09;64.64
44531;BME280;30240;47.418;0.700;2023-02-13T10:40:31;102139.82543945312;;;11.38;63.48
44531;BME280;30240;47.418;0.700;2023-02-13T10:42:59;102142.29736328125;;;11.35;64.23
44531;BME280;30240;47.418;0.700;2023-02-13T10:45:26;102143.22509765625;;;11.19;65.63
44531;BME280;30240;47.418;0.700;2023-02-13T10:45:33;102143.22509765625;;;11.19;65.63
44531;BME280;30240;47.418;0.700;2023-02-13T10:45:53;102143.22509765625;;;11.19;65.63
44531;BME280;30240;47.418;0.700;2023-02-13T10:47:49;102143.22509765625;;;11.19;65.63
44531;BME280;30240;47.418;0.700;2023-02-13T10:47:56;102143.22509765625;;;11.19;65.63
44531;BME280;30240;47.418;0.700;2023-02-13T10:48:05;102143.22509765625;;;11.19;65.63
44531;BME280;30240;47.418;0.700;2023-02-13T10:48:13;102143.22509765625;;;11.19;65.63
44531;BME280;30240;47.418;0.700;2023-02-13T10:48:21;102143.22509765625;;;11.19;65.63
44531;BME280;30240;47.418;0.700;2023-02-13T10:50:14;102147.66235351562;;;10.96;64.81
44531;BME280;30240;47.418;0.700;2023-02-13T10:52:40;102143.26782226562;;;10.06;65.37
44531;BME280;30240;47.418;0.700;2023-02-13T10:55:04;102141.17431640625;;;11.13;65.47
44531;BME280;30240;47.418;0.700;2023-02-13T10:55:14;102141.17431640625;;;11.13;65.47
44531;BME280;30240;47.418;0.700;2023-02-13T10:55:26;102141.17431640625;;;11.13;65.47
44531;BME280;30240;47.418;0.700;2023-02-13T10:55:35;102141.17431640625;;;11.13;65.47